createdAt,value
2018-09-13T00:01:02.982Z,3.70
2018-09-13T00:03:30.897Z,3.87
2018-09-13T00:05:58.686Z,3.27
2018-09-13T00:08:26.507Z,3.30
2018-09-13T00:10:54.219Z,3.60
2018-09-13T00:13:21.949Z,4.40
2018-09-13T00:15:49.694Z,3.80
2018-09-13T00:18:17.666Z,3.90
2018-09-13T00:20:45.358Z,3.60
2018-09-13T00:23:13.517Z,3.95
2018-09-13T00:25:41.185Z,5.08
2018-09-13T00:28:08.828Z,4.83
2018-09-13T00:30:36.510Z,3.60
2018-09-13T00:33:04.152Z,3.90
2018-09-13T00:35:31.760Z,3.05
2018-09-13T00:37:59.435Z,3.10
2018-09-13T00:40:27.072Z,3.25
2018-09-13T00:42:54.636Z,3.10
2018-09-13T00:45:28.855Z,4.40
2018-09-13T00:47:56.552Z,4.55
2018-09-13T00:50:24.183Z,3.50
2018-09-13T00:52:51.985Z,4.67
2018-09-13T00:55:19.536Z,5.40
2018-09-13T00:57:47.195Z,4.92
2018-09-13T01:00:14.796Z,4.53
2018-09-13T01:02:42.410Z,4.85
2018-09-13T01:05:09.996Z,5.03
2018-09-13T01:07:37.621Z,5.05
2018-09-13T01:10:05.504Z,4.62
2018-09-13T01:12:33.182Z,6.60
2018-09-13T01:15:00.840Z,5.97
2018-09-13T01:17:28.557Z,6.67
2018-09-13T01:22:30.473Z,5.60
2018-09-13T01:24:58.119Z,5.37
2018-09-13T01:27:26.956Z,5.30
2018-09-13T01:29:54.879Z,6.08
2018-09-13T01:32:22.656Z,6.33
2018-09-13T01:34:50.399Z,6.87
2018-09-13T01:37:18.027Z,5.37
2018-09-13T01:39:45.567Z,4.67
2018-09-13T01:42:13.119Z,4.45
2018-09-13T01:44:40.711Z,4.60
2018-09-13T01:47:08.657Z,4.47
2018-09-13T01:49:36.606Z,3.45
2018-09-13T01:52:04.248Z,4.97
2018-09-13T01:54:31.908Z,7.12
2018-09-13T01:56:59.521Z,6.37
2018-09-13T01:59:27.196Z,6.45
2018-09-13T02:01:54.771Z,5.70
2018-09-13T02:04:22.392Z,5.00
2018-09-13T02:06:50.131Z,4.80
2018-09-13T02:09:17.734Z,4.20
2018-09-13T02:11:45.322Z,4.37
2018-09-13T02:14:12.931Z,4.17
2018-09-13T02:16:40.489Z,5.15
2018-09-13T02:19:08.063Z,4.00
2018-09-13T02:21:35.656Z,4.78
2018-09-13T02:24:03.277Z,4.30
2018-09-13T02:26:30.845Z,5.28
2018-09-13T02:28:58.592Z,4.60
2018-09-13T02:31:26.190Z,5.07
2018-09-13T02:33:53.772Z,4.80
2018-09-13T02:36:21.621Z,4.78
2018-09-13T02:38:49.172Z,5.70
2018-09-13T02:41:16.755Z,6.12
2018-09-13T02:43:44.703Z,5.85
2018-09-13T02:46:12.761Z,5.22
2018-09-13T02:48:40.441Z,5.15
2018-09-13T02:51:08.080Z,4.90
2018-09-13T02:53:35.700Z,4.83
2018-09-13T02:56:03.330Z,5.20
2018-09-13T02:58:30.941Z,5.40
2018-09-13T03:00:58.495Z,5.25
2018-09-13T03:03:26.154Z,5.33
2018-09-13T03:05:53.699Z,4.33
2018-09-13T03:08:21.321Z,3.92
2018-09-13T03:10:48.859Z,3.70
2018-09-13T03:13:16.441Z,5.00
2018-09-13T03:15:44.035Z,5.70
2018-09-13T03:18:11.586Z,5.12
2018-09-13T03:20:39.212Z,4.65
2018-09-13T03:23:06.916Z,5.83
2018-09-13T03:25:34.437Z,4.75
2018-09-13T03:28:02.893Z,4.30
2018-09-13T03:30:30.676Z,4.40
2018-09-13T03:32:58.384Z,3.75
2018-09-13T03:35:26.093Z,4.92
2018-09-13T03:37:53.822Z,4.85
2018-09-13T03:40:21.419Z,4.95
2018-09-13T03:42:49.010Z,4.25
2018-09-13T03:45:16.651Z,3.55
2018-09-13T03:47:44.296Z,4.80
2018-09-13T03:50:11.879Z,4.10
2018-09-13T03:52:39.469Z,3.33
2018-09-13T03:55:07.034Z,4.30
2018-09-13T03:57:34.745Z,3.58
2018-09-13T04:00:02.405Z,3.08
2018-09-13T04:02:30.006Z,3.80
2018-09-13T04:04:57.604Z,3.37
2018-09-13T04:07:25.568Z,3.70
2018-09-13T04:09:53.344Z,4.62
2018-09-13T04:12:21.214Z,5.00
2018-09-13T04:14:48.835Z,6.60
2018-09-13T04:17:16.396Z,7.50
2018-09-13T04:19:46.375Z,6.62
2018-09-13T04:22:14.764Z,5.62
2018-09-13T04:24:42.949Z,6.25
2018-09-13T04:29:45.072Z,13.80
2018-09-13T04:32:12.644Z,13.38
2018-09-13T04:34:40.226Z,13.43
2018-09-13T04:37:08.123Z,10.85
2018-09-13T04:39:35.884Z,8.33
2018-09-13T04:42:03.510Z,6.70
2018-09-13T04:44:31.105Z,7.30
2018-09-13T04:46:58.816Z,6.42
2018-09-13T04:49:26.347Z,5.72
2018-09-13T04:51:54.629Z,5.43
2018-09-13T04:54:23.296Z,4.90
2018-09-13T04:56:50.860Z,4.75
2018-09-13T04:59:18.425Z,4.70
2018-09-13T05:01:46.029Z,4.45
2018-09-13T05:04:13.549Z,5.42
2018-09-13T05:06:41.330Z,6.72
2018-09-13T05:09:10.713Z,7.08
2018-09-13T05:11:38.331Z,6.72
2018-09-13T05:14:06.108Z,5.92
2018-09-13T05:16:33.715Z,6.08
2018-09-13T05:19:01.791Z,5.20
2018-09-13T05:21:29.560Z,5.75
2018-09-13T05:23:57.231Z,5.70
2018-09-13T05:26:24.832Z,7.80
2018-09-13T05:28:52.541Z,5.92
2018-09-13T05:31:20.172Z,6.55
2018-09-13T05:33:48.014Z,6.22
2018-09-13T05:36:15.660Z,6.70
2018-09-13T05:38:43.606Z,6.25
2018-09-13T05:41:11.468Z,6.57
2018-09-13T05:43:39.432Z,6.42
2018-09-13T05:46:07.146Z,6.53
2018-09-13T05:48:34.855Z,5.55
2018-09-13T05:51:02.519Z,4.65
2018-09-13T05:53:30.055Z,6.55
2018-09-13T05:55:57.724Z,8.28
2018-09-13T05:58:25.328Z,6.35
2018-09-13T06:00:53.468Z,10.40
2018-09-13T06:03:21.263Z,7.85
2018-09-13T06:05:49.142Z,6.20
2018-09-13T06:08:16.805Z,7.28
2018-09-13T06:10:44.520Z,8.60
2018-09-13T06:13:12.162Z,8.18
2018-09-13T06:15:39.984Z,5.45
2018-09-13T06:18:07.664Z,6.35
2018-09-13T06:20:35.218Z,5.53
2018-09-13T06:23:02.763Z,5.67
2018-09-13T06:25:30.328Z,6.17
2018-09-13T06:27:57.977Z,9.23
2018-09-13T06:30:25.715Z,9.15
2018-09-13T06:32:53.232Z,9.08
2018-09-13T06:35:20.787Z,8.85
2018-09-13T06:37:48.564Z,12.03
2018-09-13T06:40:16.241Z,12.58
2018-09-13T06:42:43.819Z,11.65
2018-09-13T06:45:11.387Z,12.05
2018-09-13T06:47:38.957Z,10.10
2018-09-13T06:50:06.967Z,8.98
2018-09-13T06:52:34.860Z,7.72
2018-09-13T06:55:02.510Z,7.80
2018-09-13T06:57:30.080Z,9.13
2018-09-13T06:59:58.144Z,8.25
2018-09-13T07:02:25.717Z,7.63
2018-09-13T07:04:53.346Z,6.42
2018-09-13T07:07:20.935Z,7.17
2018-09-13T07:09:48.742Z,6.95
2018-09-13T07:12:16.284Z,7.83
2018-09-13T07:14:43.812Z,6.30
2018-09-13T07:17:11.415Z,6.50
2018-09-13T07:19:38.987Z,6.42
2018-09-13T07:22:06.540Z,6.92
2018-09-13T07:24:34.324Z,6.62
2018-09-13T07:27:01.896Z,7.53
2018-09-13T07:29:29.517Z,7.30
2018-09-13T07:31:57.413Z,6.55
2018-09-13T07:34:24.992Z,5.95
2018-09-13T07:36:52.606Z,4.85
2018-09-13T07:39:20.205Z,4.83
2018-09-13T07:41:47.815Z,4.80
2018-09-13T07:44:15.767Z,5.65
2018-09-13T07:46:43.507Z,6.08
2018-09-13T07:49:11.220Z,7.65
2018-09-13T07:51:38.757Z,7.80
2018-09-13T07:54:06.656Z,8.43
2018-09-13T07:56:34.233Z,7.97
2018-09-13T07:59:01.803Z,9.68
2018-09-13T08:01:29.415Z,10.35
2018-09-13T08:03:57.089Z,12.93
2018-09-13T08:06:24.871Z,12.63
2018-09-13T08:08:52.520Z,11.78
2018-09-13T08:11:20.204Z,11.20
2018-09-13T08:13:47.786Z,9.03
2018-09-13T08:16:15.439Z,8.65
2018-09-13T08:18:42.996Z,7.53
2018-09-13T08:21:10.611Z,8.08
2018-09-13T08:23:38.293Z,7.28
2018-09-13T08:26:05.944Z,8.60
2018-09-13T08:28:33.561Z,10.28
2018-09-13T08:31:01.163Z,8.90
2018-09-13T08:33:28.814Z,8.60
2018-09-13T08:35:56.354Z,9.18
2018-09-13T08:38:24.025Z,10.63
2018-09-13T08:40:51.694Z,10.85
2018-09-13T08:43:19.356Z,10.75
2018-09-13T08:45:46.962Z,9.57
2018-09-13T08:48:14.588Z,7.30
2018-09-13T08:50:42.236Z,6.92
2018-09-13T08:53:09.891Z,6.83
2018-09-13T08:55:37.679Z,8.78
2018-09-13T08:58:05.797Z,6.60
2018-09-13T09:00:33.479Z,6.70
2018-09-13T09:03:01.060Z,7.12
2018-09-13T09:05:28.689Z,6.05
2018-09-13T09:07:56.358Z,5.50
2018-09-13T09:10:23.928Z,6.28
2018-09-13T09:12:51.850Z,8.78
2018-09-13T09:15:19.446Z,9.10
2018-09-13T09:17:47.260Z,8.00
2018-09-13T09:20:15.139Z,6.83
2018-09-13T09:22:42.953Z,6.90
2018-09-13T09:25:10.565Z,8.98
2018-09-13T09:27:38.231Z,8.58
2018-09-13T09:30:06.328Z,7.08
2018-09-13T09:32:33.952Z,6.15
2018-09-13T09:35:01.653Z,4.45
2018-09-13T09:37:29.310Z,5.47
2018-09-13T09:39:57.057Z,5.70
2018-09-13T09:42:24.685Z,4.42
2018-09-13T09:44:52.241Z,4.30
2018-09-13T09:47:19.915Z,5.20
2018-09-13T09:49:47.480Z,11.00
2018-09-13T09:52:15.292Z,13.20
2018-09-13T09:54:42.865Z,13.80
2018-09-13T09:57:10.644Z,12.60
2018-09-13T09:59:38.172Z,9.50
2018-09-13T10:02:11.845Z,11.90
2018-09-13T10:04:39.444Z,11.30
2018-09-13T10:07:08.835Z,9.43
2018-09-13T10:09:36.469Z,9.40
2018-09-13T10:12:04.055Z,11.10
2018-09-13T10:14:31.744Z,10.70
2018-09-13T10:17:04.912Z,10.48
2018-09-13T10:19:38.100Z,11.90
2018-09-13T10:23:12.753Z,10.63
2018-09-13T10:25:45.879Z,10.55
2018-09-13T10:28:19.564Z,9.38
2018-09-13T10:30:52.835Z,8.95
2018-09-13T10:33:26.208Z,8.30
2018-09-13T10:35:59.513Z,6.70
2018-09-13T10:38:33.225Z,8.25
2018-09-13T10:41:07.275Z,7.60
2018-09-13T10:43:40.513Z,6.08
2018-09-13T10:46:13.751Z,9.63
2018-09-13T10:48:47.015Z,10.58
2018-09-13T10:51:20.308Z,9.35
2018-09-13T10:53:52.917Z,9.10
2018-09-13T10:56:20.504Z,8.53
2018-09-13T10:58:48.500Z,7.80
2018-09-13T11:01:16.065Z,7.72
2018-09-13T11:03:43.972Z,11.95
2018-09-13T11:06:11.525Z,11.00
2018-09-13T11:08:39.148Z,12.05
2018-09-13T11:11:06.871Z,11.55
2018-09-13T11:13:41.104Z,11.55
2018-09-13T11:16:08.711Z,16.12
2018-09-13T11:18:36.281Z,15.90
2018-09-13T11:21:03.855Z,11.40
2018-09-13T11:23:31.424Z,11.00
2018-09-13T11:25:59.062Z,10.82
2018-09-13T11:28:26.656Z,8.48
2018-09-13T11:31:00.146Z,9.60
2018-09-13T11:33:27.884Z,7.28
2018-09-13T11:35:55.496Z,8.28
2018-09-13T11:38:23.144Z,6.42
2018-09-13T11:40:50.792Z,6.10
2018-09-13T11:43:18.407Z,6.55
2018-09-13T11:45:46.035Z,6.37
2018-09-13T11:48:13.711Z,5.65
2018-09-13T11:50:41.309Z,5.40
2018-09-13T11:53:08.936Z,5.00
2018-09-13T11:55:42.687Z,5.33
2018-09-13T11:58:11.710Z,5.10
2018-09-13T12:00:39.524Z,5.23
2018-09-13T12:03:07.842Z,5.60
2018-09-13T12:05:35.562Z,5.80
2018-09-13T12:08:03.436Z,5.28
2018-09-13T12:10:31.180Z,4.35
2018-09-13T12:12:59.561Z,5.25
2018-09-13T12:15:27.617Z,5.00
2018-09-13T12:17:55.308Z,5.60
2018-09-13T12:20:22.855Z,5.10
2018-09-13T12:22:50.797Z,5.25
2018-09-13T12:25:18.544Z,4.83
2018-09-13T12:27:46.205Z,4.30
2018-09-13T12:30:13.829Z,4.05
2018-09-13T12:32:41.649Z,4.25
2018-09-13T12:35:09.172Z,4.35
2018-09-13T12:37:36.799Z,4.55
2018-09-13T12:40:05.409Z,4.80
2018-09-13T12:42:33.076Z,4.87
2018-09-13T12:45:00.716Z,4.95
2018-09-13T12:47:28.396Z,4.28
2018-09-13T12:49:56.139Z,5.53
2018-09-13T12:52:23.703Z,5.45
2018-09-13T12:54:51.269Z,5.53
2018-09-13T12:57:18.848Z,5.72
2018-09-13T12:59:46.760Z,5.80
2018-09-13T13:02:14.461Z,5.92
2018-09-13T13:04:42.049Z,6.45
2018-09-13T13:07:09.640Z,7.12
2018-09-13T13:09:37.262Z,7.22
2018-09-13T13:12:04.968Z,7.28
2018-09-13T13:14:32.592Z,7.65
2018-09-13T13:17:00.287Z,7.70
2018-09-13T13:19:27.828Z,8.50
2018-09-13T13:21:55.456Z,8.13
2018-09-13T13:24:23.034Z,7.22
2018-09-13T13:26:50.603Z,7.28
2018-09-13T13:29:18.227Z,6.15
2018-09-13T13:31:45.845Z,6.37
2018-09-13T13:34:13.419Z,6.53
2018-09-13T13:36:41.106Z,6.60
2018-09-13T13:39:09.696Z,6.22
2018-09-13T13:41:37.244Z,6.53
2018-09-13T13:44:05.435Z,6.15
2018-09-13T13:46:32.962Z,6.67
2018-09-13T13:49:00.549Z,5.83
2018-09-13T13:51:28.143Z,6.12
2018-09-13T13:53:55.708Z,5.65
2018-09-13T13:56:23.312Z,5.90
2018-09-13T13:58:50.876Z,6.25
2018-09-13T14:01:18.730Z,5.40
2018-09-13T14:03:46.270Z,5.22
2018-09-13T14:06:13.913Z,5.50
2018-09-13T14:08:41.917Z,5.97
2018-09-13T14:11:09.489Z,5.47
2018-09-13T14:13:37.125Z,5.90
2018-09-13T14:16:04.681Z,6.35
2018-09-13T14:18:32.299Z,6.30
2018-09-13T14:21:00.077Z,5.60
2018-09-13T14:23:27.652Z,5.55
2018-09-13T14:25:55.355Z,5.40
2018-09-13T14:28:22.908Z,5.25
2018-09-13T14:30:50.440Z,5.30
2018-09-13T14:33:17.999Z,4.90
2018-09-13T14:35:45.965Z,6.40
2018-09-13T14:38:13.504Z,6.10
2018-09-13T14:40:41.101Z,6.25
2018-09-13T14:43:08.733Z,6.15
2018-09-13T14:45:36.281Z,5.87
2018-09-13T14:48:04.319Z,6.72
2018-09-13T14:50:32.056Z,6.10
2018-09-13T14:52:59.657Z,6.55
2018-09-13T14:55:27.227Z,6.17
2018-09-13T14:57:54.854Z,6.53
2018-09-13T15:00:22.515Z,6.85
2018-09-13T15:02:50.055Z,6.78
2018-09-13T15:05:17.684Z,6.50
2018-09-13T15:07:45.283Z,6.37
2018-09-13T15:10:13.339Z,6.10
2018-09-13T15:12:41.332Z,6.42
2018-09-13T15:15:09.085Z,6.55
2018-09-13T15:17:36.760Z,6.50
2018-09-13T15:20:04.432Z,6.90
2018-09-13T15:22:32.016Z,6.97
2018-09-13T15:24:59.731Z,7.17
2018-09-13T15:27:27.283Z,6.95
2018-09-13T15:29:55.704Z,7.20
2018-09-13T15:32:23.304Z,7.33
2018-09-13T15:34:50.855Z,7.35
2018-09-13T15:37:18.484Z,8.08
2018-09-13T15:39:46.163Z,7.12
2018-09-13T15:42:13.735Z,6.72
2018-09-13T15:44:41.360Z,6.67
2018-09-13T15:47:08.980Z,6.75
2018-09-13T15:49:36.545Z,6.95
2018-09-13T15:52:04.121Z,7.58
2018-09-13T15:54:32.135Z,7.60
2018-09-13T15:56:59.764Z,7.62
2018-09-13T15:59:27.413Z,8.35
2018-09-13T16:01:55.010Z,7.42
2018-09-13T16:04:22.599Z,7.73
2018-09-13T16:06:50.267Z,8.03
2018-09-13T16:09:17.849Z,7.47
2018-09-13T16:11:46.004Z,7.83
2018-09-13T16:14:14.350Z,7.92
2018-09-13T16:16:42.055Z,6.97
2018-09-13T16:19:09.790Z,6.53
2018-09-13T16:21:37.566Z,6.65
2018-09-13T16:24:05.277Z,6.30
2018-09-13T16:26:34.917Z,6.50
2018-09-13T16:29:03.249Z,6.28
2018-09-13T16:31:31.960Z,5.97
2018-09-13T16:33:59.718Z,5.97
2018-09-13T16:36:28.720Z,5.00
2018-09-13T16:39:02.224Z,4.60
2018-09-13T16:41:41.826Z,4.60
2018-09-13T16:44:14.118Z,4.67
2018-09-13T16:46:47.488Z,4.08
2018-09-13T16:49:15.619Z,4.20
2018-09-13T16:51:43.203Z,4.33
2018-09-13T16:54:10.876Z,3.87
2018-09-13T16:56:38.507Z,3.87
2018-09-13T16:59:06.128Z,3.87
2018-09-13T17:01:33.759Z,3.10
2018-09-13T17:04:01.381Z,3.60
2018-09-13T17:06:29.088Z,3.65
2018-09-13T17:08:56.649Z,3.90
2018-09-13T17:11:24.316Z,3.52
2018-09-13T17:13:52.014Z,3.02
2018-09-13T17:16:19.714Z,3.55
2018-09-13T17:18:47.319Z,3.40
2018-09-13T17:21:15.142Z,3.22
2018-09-13T17:23:42.787Z,3.20
2018-09-13T17:26:10.484Z,3.42
2018-09-13T17:28:38.108Z,3.55
2018-09-13T17:31:05.991Z,3.70
2018-09-13T17:33:33.704Z,3.65
2018-09-13T17:36:01.327Z,3.27
2018-09-13T17:38:28.967Z,3.00
2018-09-13T17:40:56.567Z,3.67
2018-09-13T17:43:24.220Z,3.60
2018-09-13T17:45:51.828Z,3.57
2018-09-13T17:48:19.456Z,2.77
2018-09-13T17:50:47.018Z,3.87
2018-09-13T17:53:14.696Z,3.08
2018-09-13T17:55:42.773Z,3.25
2018-09-13T17:58:10.288Z,3.47
2018-09-13T18:00:37.922Z,2.90
2018-09-13T18:03:05.591Z,2.75
2018-09-13T18:05:33.242Z,2.85
2018-09-13T18:08:00.819Z,2.20
2018-09-13T18:10:28.394Z,2.40
2018-09-13T18:12:56.036Z,2.47
2018-09-13T18:15:25.029Z,2.50
2018-09-13T18:17:52.652Z,2.80
2018-09-13T18:20:20.218Z,2.52
2018-09-13T18:22:47.880Z,2.77
2018-09-13T18:25:15.500Z,3.17
2018-09-13T18:27:43.077Z,4.12
2018-09-13T18:30:10.708Z,3.37
2018-09-13T18:32:38.400Z,3.70
2018-09-13T18:35:06.590Z,3.83
2018-09-13T18:37:34.402Z,4.83
2018-09-13T18:40:02.110Z,4.40
2018-09-13T18:42:29.805Z,4.47
2018-09-13T18:44:57.467Z,3.70
2018-09-13T18:47:25.066Z,3.90
2018-09-13T18:49:52.676Z,3.90
2018-09-13T18:52:20.282Z,4.22
2018-09-13T18:54:47.940Z,3.62
2018-09-13T18:57:15.658Z,3.40
2018-09-13T18:59:43.327Z,3.70
2018-09-13T19:02:10.920Z,3.80
2018-09-13T19:04:38.476Z,3.50
2018-09-13T19:07:06.077Z,3.90
2018-09-13T19:09:33.817Z,4.42
2018-09-13T19:12:01.421Z,4.87
2018-09-13T19:14:29.008Z,4.10
2018-09-13T19:19:21.559Z,4.60
2018-09-13T19:21:49.273Z,3.87
2018-09-13T19:24:17.029Z,4.70
2018-09-13T19:26:44.740Z,5.03
2018-09-13T19:29:12.422Z,5.50
2018-09-13T19:31:40.174Z,4.83
2018-09-13T19:34:07.861Z,5.35
2018-09-13T19:36:35.575Z,4.08
2018-09-13T19:39:03.887Z,3.83
2018-09-13T19:41:31.750Z,3.85
2018-09-13T19:43:59.549Z,3.60
2018-09-13T19:46:27.367Z,3.42
2018-09-13T19:48:54.951Z,3.92
2018-09-13T19:51:22.667Z,3.33
2018-09-13T19:53:50.342Z,4.05
2018-09-13T19:56:18.058Z,3.65
2018-09-13T19:58:45.786Z,3.55
2018-09-13T20:01:13.579Z,3.95
2018-09-13T20:03:41.269Z,3.02
2018-09-13T20:06:08.947Z,3.33
2018-09-13T20:08:37.006Z,3.10
2018-09-13T20:11:04.911Z,2.90
2018-09-13T20:13:32.946Z,3.12
2018-09-13T20:16:00.867Z,3.47
2018-09-13T20:18:28.872Z,3.27
2018-09-13T20:20:56.475Z,2.83
2018-09-13T20:23:24.184Z,3.30
2018-09-13T20:25:51.948Z,3.15
2018-09-13T20:28:19.657Z,3.00
2018-09-13T20:30:47.341Z,2.92
2018-09-13T20:33:15.007Z,2.30
2018-09-13T20:35:42.898Z,2.15
2018-09-13T20:38:10.602Z,2.00
2018-09-13T20:40:38.317Z,2.08
2018-09-13T20:43:06.244Z,2.00
2018-09-13T20:45:33.988Z,2.10
2018-09-13T20:48:01.725Z,2.08
2018-09-13T20:50:29.458Z,2.40
2018-09-13T20:52:57.201Z,2.40
2018-09-13T20:55:25.002Z,2.47
2018-09-13T20:57:53.278Z,2.00
2018-09-13T21:00:20.990Z,2.27
2018-09-13T21:02:49.566Z,2.05
2018-09-13T21:05:17.768Z,2.70
2018-09-13T21:07:45.513Z,2.90
2018-09-13T21:10:13.144Z,3.02
2018-09-13T21:12:41.031Z,2.92
2018-09-13T21:15:09.087Z,2.42
2018-09-13T21:17:36.922Z,2.60
2018-09-13T21:20:05.988Z,2.98
2018-09-13T21:22:33.694Z,3.15
2018-09-13T21:25:01.400Z,2.75
2018-09-13T21:27:29.200Z,3.40
2018-09-13T21:29:57.208Z,3.50
2018-09-13T21:32:25.426Z,2.70
2018-09-13T21:34:53.165Z,2.65
2018-09-13T21:37:20.848Z,2.67
2018-09-13T21:39:48.578Z,2.70
2018-09-13T21:42:16.326Z,3.67
2018-09-13T21:44:44.080Z,2.87
2018-09-13T21:47:11.808Z,2.33
2018-09-13T21:49:39.571Z,3.00
2018-09-13T21:52:07.380Z,2.55
2018-09-13T21:54:35.082Z,2.27
2018-09-13T21:57:02.936Z,2.22
2018-09-13T21:59:30.789Z,1.70
2018-09-13T22:01:58.501Z,2.75
2018-09-13T22:04:26.231Z,2.52
2018-09-13T22:06:53.902Z,2.03
2018-09-13T22:09:21.593Z,2.90
2018-09-13T22:11:49.380Z,2.83
2018-09-13T22:14:17.189Z,2.70
2018-09-13T22:16:45.031Z,2.33
2018-09-13T22:19:12.828Z,2.25
2018-09-13T22:21:40.625Z,3.25
2018-09-13T22:24:08.334Z,2.50
2018-09-13T22:26:36.165Z,2.98
2018-09-13T22:29:10.635Z,3.10
2018-09-13T22:31:38.390Z,3.35
2018-09-13T22:34:06.831Z,3.20
2018-09-13T22:36:35.091Z,3.40
2018-09-13T22:39:03.363Z,2.90
2018-09-13T22:41:31.075Z,2.85
2018-09-13T22:43:59.071Z,2.90
2018-09-13T22:46:26.878Z,3.27
2018-09-13T22:48:54.750Z,2.50
2018-09-13T22:51:22.557Z,2.60
2018-09-13T22:53:50.363Z,2.40
2018-09-13T22:56:18.108Z,2.52
2018-09-13T22:58:45.958Z,2.50
2018-09-13T23:01:13.674Z,2.50
2018-09-13T23:03:41.423Z,2.60
2018-09-13T23:06:09.194Z,3.47
2018-09-13T23:08:36.891Z,3.20
2018-09-13T23:11:04.539Z,3.55
2018-09-13T23:13:33.115Z,2.60
2018-09-13T23:16:01.061Z,3.62
2018-09-13T23:18:28.703Z,3.50
2018-09-13T23:20:56.402Z,3.47
2018-09-13T23:23:24.185Z,2.95
2018-09-13T23:25:51.921Z,2.37
2018-09-13T23:28:19.737Z,2.47
2018-09-13T23:30:47.518Z,4.83
2018-09-13T23:33:15.255Z,4.25
2018-09-13T23:35:43.006Z,4.50
2018-09-13T23:38:10.685Z,4.30
2018-09-13T23:40:38.520Z,4.25
2018-09-13T23:43:06.146Z,3.58
2018-09-13T23:45:33.839Z,3.87
2018-09-13T23:48:01.555Z,3.62
2018-09-13T23:50:29.290Z,3.00
2018-09-13T23:52:57.026Z,2.90
2018-09-13T23:55:24.757Z,2.30
2018-09-13T23:57:52.693Z,3.80
